Costa Adriatica — IFQQ — position and weather

sailwx.info

Track history (hours):
 
Tides and Currents Weather Stations Pressure Air Temp Water Temp Dewpoint Dewpoint Depression Visibility Wind Speed Wind Dir Waves Ship Positions

Costa Adriatica

Last reported at 2017-May-27 17:01 UTC. Time now 2017-May-29 17:06 UTC.
Position N 45°36' E 012°52'.

Length 28 m.

Type: Passenger vessel. MMSI: 247194400.

Date/timePositionNaut miles runAvg speedWind from/ knotsBaromVisibWave heightAir tempDewpointWater temp
2017-May-27 17:01N 45°36' E 012°52'0 0.4
2017-May-27 17:00N 45°36' E 012°52'2 4.9
2017-May-27 16:30N 45°36' E 012°56'3 6.7
2017-May-27 16:00N 45°38' E 012°60'510.0
2017-May-27 15:30N 45°35' E 012°54'1020.3
2017-May-27 15:00N 45°30' E 012°41'1020.6
2017-May-27 14:31N 45°26' E 012°28'5 4.8
2017-May-27 13:31N 45°26' E 012°21'0 0.0
2017-May-27 13:00N 45°26' E 012°21'0 0.0
2017-May-27 12:30N 45°26' E 012°21'0 0.0
2017-May-27 12:00N 45°26' E 012°21'0 0.0
2017-May-27 11:30N 45°26' E 012°21'0 0.0
2017-May-27 11:00N 45°26' E 012°21'0 0.0
2017-May-27 10:31N 45°26' E 012°21'0 0.0
2017-May-27 10:01N 45°26' E 012°21'0 0.0
2017-May-27 09:30N 45°26' E 012°21'0 0.0
2017-May-27 09:00N 45°26' E 012°21'0 0.0
2017-May-27 08:30N 45°26' E 012°21'510.7
2017-May-27 08:01N 45°26' E 012°29'1019.5
2017-May-27 07:30N 45°30' E 012°41'1019.8
2017-May-27 07:01N 45°35' E 012°53'2 0.1
2017-May-26 08:29N 45°37' E 012°54'4 1.6
2017-May-26 06:02N 45°38' E 012°60'0 1.4
2017-May-26 06:00N 45°38' E 012°60'510.4
2017-May-26 05:30N 45°35' E 012°53'1 0.1
2017-May-25 16:50N 45°36' E 012°53'2 6.2
2017-May-25 16:30N 45°34' E 012°51'1019.7
2017-May-25 16:00N 45°30' E 012°39'1019.6
2017-May-25 15:30N 45°25' E 012°27'4 8.0
2017-May-25 15:00N 45°26' E 012°21'0 0.0
2017-May-25 14:30N 45°26' E 012°21'0 0.0
2017-May-25 13:30N 45°26' E 012°21'0 0.0
2017-May-25 13:00N 45°26' E 012°21'0 0.0
2017-May-25 12:30N 45°26' E 012°21'0 0.6
2017-May-25 12:00N 45°26' E 012°21'1 2.7
2017-May-25 11:30N 45°27' E 012°22'3 5.0
2017-May-25 11:00N 45°29' E 012°24'1 2.1
2017-May-25 10:30N 45°30' E 012°25'0 0.0
2017-May-25 10:00N 45°30' E 012°25'1 1.9
2017-May-25 09:30N 45°29' E 012°25'0 0.2
2017-May-25 09:00N 45°29' E 012°25'0 0.0
2017-May-25 08:30N 45°29' E 012°25'0 0.0
2017-May-25 08:00N 45°29' E 012°25'3 5.4
2017-May-25 07:30N 45°26' E 012°25'612.7
2017-May-25 07:00N 45°28' E 012°34'1019.8
2017-May-25 06:30N 45°32' E 012°46'611.2
2017-May-25 05:58N 45°36' E 012°53'0 0.0
2017-May-24 17:55N 45°36' E 012°53'1 2.9
2017-May-24 17:29N 45°36' E 012°54'4 8.6
2017-May-24 16:59N 45°38' E 012°60'0 0.0
2017-May-24 16:28N 45°38' E 012°60'0 0.1
2017-May-24 16:00N 45°38' E 012°60'714.6
2017-May-24 15:30N 45°34' E 012°51'918.8
2017-May-24 15:00N 45°30' E 012°39'919.0
2017-May-24 14:30N 45°25' E 012°27'4 4.1
2017-May-24 13:31N 45°26' E 012°21'0 0.0
2017-May-24 13:00N 45°26' E 012°21'0 0.0
2017-May-24 12:31N 45°26' E 012°21'0 0.0
2017-May-24 12:01N 45°26' E 012°21'0 0.0
2017-May-24 11:31N 45°26' E 012°21'0 0.0
2017-May-24 11:01N 45°26' E 012°21'0 0.0
2017-May-24 10:30N 45°26' E 012°21'0 0.0
2017-May-24 10:01N 45°26' E 012°21'0 0.0
2017-May-24 09:31N 45°26' E 012°21'0 0.0
2017-May-24 09:00N 45°26' E 012°21'0 0.6
2017-May-24 08:30N 45°26' E 012°21'510.9
2017-May-24 08:00N 45°26' E 012°29'1018.9
2017-May-24 07:30N 45°30' E 012°41'919.1
2017-May-24 07:00N 45°35' E 012°53'5 3.0
2017-May-24 05:14N 45°38' E 012°59'1 5.9
2017-May-24 05:00N 45°37' E 012°58'4 7.0
2017-May-24 04:24N 45°36' E 012°52'  
2017-May-18 11:48N 45°35' E 012°52'3 8.7
2017-May-18 11:28N 45°36' E 012°56'2 0.7
2017-May-18 08:58N 45°37' E 012°54'0 0.1
2017-May-18 08:27N 45°37' E 012°54'3 1.2
2017-May-18 05:47N 45°37' E 012°59'  
Track history (hours):
 
Tides and Currents Weather Stations Pressure Air Temp Water Temp Dewpoint Dewpoint Depression Visibility Wind Speed Wind Dir Waves Ship Positions

Costa Adriatica

Last reported at 2017-May-27 17:01 UTC. Time now 2017-May-29 17:06 UTC.
Position N 45°36' E 012°52'.

Length 28 m.

Type: Passenger vessel. MMSI: 247194400.

Date/timePositionNaut miles runAvg speedWind from/ knotsBaromVisibWave heightAir tempDewpointWater temp
2017-May-27 17:01N 45°36' E 012°52'0 0.4
2017-May-27 17:00N 45°36' E 012°52'2 4.9
2017-May-27 16:30N 45°36' E 012°56'3 6.7
2017-May-27 16:00N 45°38' E 012°60'510.0
2017-May-27 15:30N 45°35' E 012°54'1020.3
2017-May-27 15:00N 45°30' E 012°41'1020.6
2017-May-27 14:31N 45°26' E 012°28'5 4.8
2017-May-27 13:31N 45°26' E 012°21'0 0.0
2017-May-27 13:00N 45°26' E 012°21'0 0.0
2017-May-27 12:30N 45°26' E 012°21'0 0.0
2017-May-27 12:00N 45°26' E 012°21'0 0.0
2017-May-27 11:30N 45°26' E 012°21'0 0.0
2017-May-27 11:00N 45°26' E 012°21'0 0.0
2017-May-27 10:31N 45°26' E 012°21'0 0.0
2017-May-27 10:01N 45°26' E 012°21'0 0.0
2017-May-27 09:30N 45°26' E 012°21'0 0.0
2017-May-27 09:00N 45°26' E 012°21'0 0.0
2017-May-27 08:30N 45°26' E 012°21'510.7
2017-May-27 08:01N 45°26' E 012°29'1019.5
2017-May-27 07:30N 45°30' E 012°41'1019.8
2017-May-27 07:01N 45°35' E 012°53'2 0.1
2017-May-26 08:29N 45°37' E 012°54'4 1.6
2017-May-26 06:02N 45°38' E 012°60'0 1.4
2017-May-26 06:00N 45°38' E 012°60'510.4
2017-May-26 05:30N 45°35' E 012°53'1 0.1
2017-May-25 16:50N 45°36' E 012°53'2 6.2
2017-May-25 16:30N 45°34' E 012°51'1019.7
2017-May-25 16:00N 45°30' E 012°39'1019.6
2017-May-25 15:30N 45°25' E 012°27'4 8.0
2017-May-25 15:00N 45°26' E 012°21'0 0.0
2017-May-25 14:30N 45°26' E 012°21'0 0.0
2017-May-25 13:30N 45°26' E 012°21'0 0.0
2017-May-25 13:00N 45°26' E 012°21'0 0.0
2017-May-25 12:30N 45°26' E 012°21'0 0.6
2017-May-25 12:00N 45°26' E 012°21'1 2.7
2017-May-25 11:30N 45°27' E 012°22'3 5.0
2017-May-25 11:00N 45°29' E 012°24'1 2.1
2017-May-25 10:30N 45°30' E 012°25'0 0.0
2017-May-25 10:00N 45°30' E 012°25'1 1.9
2017-May-25 09:30N 45°29' E 012°25'0 0.2
2017-May-25 09:00N 45°29' E 012°25'0 0.0
2017-May-25 08:30N 45°29' E 012°25'0 0.0
2017-May-25 08:00N 45°29' E 012°25'3 5.4
2017-May-25 07:30N 45°26' E 012°25'612.7
2017-May-25 07:00N 45°28' E 012°34'1019.8
2017-May-25 06:30N 45°32' E 012°46'611.2
2017-May-25 05:58N 45°36' E 012°53'0 0.0
2017-May-24 17:55N 45°36' E 012°53'1 2.9
2017-May-24 17:29N 45°36' E 012°54'4 8.6
2017-May-24 16:59N 45°38' E 012°60'0 0.0
2017-May-24 16:28N 45°38' E 012°60'0 0.1
2017-May-24 16:00N 45°38' E 012°60'714.6
2017-May-24 15:30N 45°34' E 012°51'918.8
2017-May-24 15:00N 45°30' E 012°39'919.0
2017-May-24 14:30N 45°25' E 012°27'4 4.1
2017-May-24 13:31N 45°26' E 012°21'0 0.0
2017-May-24 13:00N 45°26' E 012°21'0 0.0
2017-May-24 12:31N 45°26' E 012°21'0 0.0
2017-May-24 12:01N 45°26' E 012°21'0 0.0
2017-May-24 11:31N 45°26' E 012°21'0 0.0
2017-May-24 11:01N 45°26' E 012°21'0 0.0
2017-May-24 10:30N 45°26' E 012°21'0 0.0
2017-May-24 10:01N 45°26' E 012°21'0 0.0
2017-May-24 09:31N 45°26' E 012°21'0 0.0
2017-May-24 09:00N 45°26' E 012°21'0 0.6
2017-May-24 08:30N 45°26' E 012°21'510.9
2017-May-24 08:00N 45°26' E 012°29'1018.9
2017-May-24 07:30N 45°30' E 012°41'919.1
2017-May-24 07:00N 45°35' E 012°53'5 3.0
2017-May-24 05:14N 45°38' E 012°59'1 5.9
2017-May-24 05:00N 45°37' E 012°58'4 7.0
2017-May-24 04:24N 45°36' E 012°52'  
2017-May-18 11:48N 45°35' E 012°52'3 8.7
2017-May-18 11:28N 45°36' E 012°56'2 0.7
2017-May-18 08:58N 45°37' E 012°54'0 0.1
2017-May-18 08:27N 45°37' E 012°54'3 1.2
2017-May-18 05:47N 45°37' E 012°59'  

Dump ship's entire track history